sensor_id;sensor_type;location;lat;lon;timestamp;P1;durP1;ratioP1;P2;durP2;ratioP2
29634;SDS011;16557;54.762;56.068;2022-11-03T00:01:56;2.17;;;0.78;;
29634;SDS011;16557;54.762;56.068;2022-11-03T00:04:25;1.95;;;0.90;;
29634;SDS011;16557;54.762;56.068;2022-11-03T00:06:55;1.72;;;0.88;;
29634;SDS011;16557;54.762;56.068;2022-11-03T00:09:24;2.20;;;0.90;;
29634;SDS011;16557;54.762;56.068;2022-11-03T00:11:53;2.15;;;1.07;;
29634;SDS011;16557;54.762;56.068;2022-11-03T00:14:22;1.90;;;0.80;;
29634;SDS011;16557;54.762;56.068;2022-11-03T00:16:52;3.60;;;0.80;;
29634;SDS011;16557;54.762;56.068;2022-11-03T00:19:21;3.98;;;1.12;;
29634;SDS011;16557;54.762;56.068;2022-11-03T00:21:50;4.15;;;1.00;;
29634;SDS011;16557;54.762;56.068;2022-11-03T00:24:19;17.50;;;3.65;;
29634;SDS011;16557;54.762;56.068;2022-11-03T00:26:49;15.85;;;3.17;;
29634;SDS011;16557;54.762;56.068;2022-11-03T00:29:18;4.33;;;0.90;;
29634;SDS011;16557;54.762;56.068;2022-11-03T00:31:47;3.92;;;1.20;;
29634;SDS011;16557;54.762;56.068;2022-11-03T00:34:17;1.80;;;1.10;;
29634;SDS011;16557;54.762;56.068;2022-11-03T00:36:46;4.83;;;1.57;;
29634;SDS011;16557;54.762;56.068;2022-11-03T00:39:15;9.53;;;1.60;;
29634;SDS011;16557;54.762;56.068;2022-11-03T00:41:44;6.90;;;1.95;;
29634;SDS011;16557;54.762;56.068;2022-11-03T00:44:13;2.72;;;1.10;;
29634;SDS011;16557;54.762;56.068;2022-11-03T00:46:43;2.15;;;1.10;;
29634;SDS011;16557;54.762;56.068;2022-11-03T00:49:12;5.25;;;1.10;;
29634;SDS011;16557;54.762;56.068;2022-11-03T00:51:41;1.65;;;1.02;;
29634;SDS011;16557;54.762;56.068;2022-11-03T00:54:10;2.40;;;1.15;;
29634;SDS011;16557;54.762;56.068;2022-11-03T00:56:40;7.37;;;1.50;;
29634;SDS011;16557;54.762;56.068;2022-11-03T00:59:10;4.28;;;1.12;;
29634;SDS011;16557;54.762;56.068;2022-11-03T01:01:40;5.08;;;1.00;;
29634;SDS011;16557;54.762;56.068;2022-11-03T01:04:10;11.50;;;1.20;;
29634;SDS011;16557;54.762;56.068;2022-11-03T01:06:57;2.47;;;1.15;;
29634;SDS011;16557;54.762;56.068;2022-11-03T01:09:28;3.37;;;1.12;;
29634;SDS011;16557;54.762;56.068;2022-11-03T01:11:59;6.35;;;1.37;;
29634;SDS011;16557;54.762;56.068;2022-11-03T01:14:32;3.70;;;1.20;;
29634;SDS011;16557;54.762;56.068;2022-11-03T01:17:06;3.62;;;1.32;;
29634;SDS011;16557;54.762;56.068;2022-11-03T01:19:36;3.25;;;1.35;;
29634;SDS011;16557;54.762;56.068;2022-11-03T01:22:06;1.82;;;0.98;;
29634;SDS011;16557;54.762;56.068;2022-11-03T01:24:35;4.53;;;1.10;;
29634;SDS011;16557;54.762;56.068;2022-11-03T01:27:05;6.22;;;1.37;;
29634;SDS011;16557;54.762;56.068;2022-11-03T01:29:36;45.58;;;4.20;;
29634;SDS011;16557;54.762;56.068;2022-11-03T01:32:05;4.85;;;1.00;;
29634;SDS011;16557;54.762;56.068;2022-11-03T01:34:37;4.05;;;0.72;;
29634;SDS011;16557;54.762;56.068;2022-11-03T01:37:07;5.33;;;1.20;;
29634;SDS011;16557;54.762;56.068;2022-11-03T01:39:36;8.65;;;1.40;;
29634;SDS011;16557;54.762;56.068;2022-11-03T01:42:05;3.77;;;1.60;;
29634;SDS011;16557;54.762;56.068;2022-11-03T01:44:36;3.50;;;1.20;;
29634;SDS011;16557;54.762;56.068;2022-11-03T01:47:41;3.17;;;0.90;;
29634;SDS011;16557;54.762;56.068;2022-11-03T01:49:58;5.05;;;1.10;;
29634;SDS011;16557;54.762;56.068;2022-11-03T01:52:35;3.87;;;1.95;;
29634;SDS011;16557;54.762;56.068;2022-11-03T01:55:26;3.40;;;0.98;;
29634;SDS011;16557;54.762;56.068;2022-11-03T01:57:59;6.17;;;1.70;;
29634;SDS011;16557;54.762;56.068;2022-11-03T02:00:33;16.17;;;1.65;;
29634;SDS011;16557;54.762;56.068;2022-11-03T02:03:03;4.28;;;1.30;;
29634;SDS011;16557;54.762;56.068;2022-11-03T02:05:33;2.75;;;1.30;;
29634;SDS011;16557;54.762;56.068;2022-11-03T02:08:07;9.03;;;1.67;;
29634;SDS011;16557;54.762;56.068;2022-11-03T02:10:36;8.78;;;2.55;;
29634;SDS011;16557;54.762;56.068;2022-11-03T02:13:08;3.27;;;1.42;;
29634;SDS011;16557;54.762;56.068;2022-11-03T02:15:50;10.60;;;1.55;;
29634;SDS011;16557;54.762;56.068;2022-11-03T02:18:21;7.45;;;2.50;;
29634;SDS011;16557;54.762;56.068;2022-11-03T02:21:01;3.60;;;1.35;;
29634;SDS011;16557;54.762;56.068;2022-11-03T02:23:33;18.52;;;2.15;;
29634;SDS011;16557;54.762;56.068;2022-11-03T02:26:06;17.12;;;1.95;;
29634;SDS011;16557;54.762;56.068;2022-11-03T02:28:37;4.08;;;1.57;;
29634;SDS011;16557;54.762;56.068;2022-11-03T02:31:16;12.65;;;2.15;;
29634;SDS011;16557;54.762;56.068;2022-11-03T02:33:54;2.35;;;1.42;;
29634;SDS011;16557;54.762;56.068;2022-11-03T02:36:48;11.70;;;1.57;;
29634;SDS011;16557;54.762;56.068;2022-11-03T02:39:18;15.20;;;2.12;;
29634;SDS011;16557;54.762;56.068;2022-11-03T02:41:50;1.75;;;1.07;;
29634;SDS011;16557;54.762;56.068;2022-11-03T02:44:20;4.55;;;1.50;;
29634;SDS011;16557;54.762;56.068;2022-11-03T02:46:53;5.25;;;1.45;;
29634;SDS011;16557;54.762;56.068;2022-11-03T02:49:23;13.20;;;2.60;;
29634;SDS011;16557;54.762;56.068;2022-11-03T02:51:59;6.60;;;1.92;;
29634;SDS011;16557;54.762;56.068;2022-11-03T02:54:30;11.00;;;2.98;;
29634;SDS011;16557;54.762;56.068;2022-11-03T02:57:02;8.23;;;2.27;;
29634;SDS011;16557;54.762;56.068;2022-11-03T02:59:40;4.60;;;2.70;;
29634;SDS011;16557;54.762;56.068;2022-11-03T03:02:09;18.12;;;3.30;;
29634;SDS011;16557;54.762;56.068;2022-11-03T03:04:43;6.47;;;3.12;;
29634;SDS011;16557;54.762;56.068;2022-11-03T03:07:24;15.60;;;4.03;;
29634;SDS011;16557;54.762;56.068;2022-11-03T03:10:05;10.70;;;4.05;;
29634;SDS011;16557;54.762;56.068;2022-11-03T03:12:51;11.03;;;4.42;;
29634;SDS011;16557;54.762;56.068;2022-11-03T03:15:27;8.18;;;3.47;;
29634;SDS011;16557;54.762;56.068;2022-11-03T03:18:09;8.80;;;3.45;;
29634;SDS011;16557;54.762;56.068;2022-11-03T03:21:00;11.10;;;3.90;;
29634;SDS011;16557;54.762;56.068;2022-11-03T03:23:34;14.25;;;4.15;;
29634;SDS011;16557;54.762;56.068;2022-11-03T03:26:11;12.70;;;3.90;;
29634;SDS011;16557;54.762;56.068;2022-11-03T03:28:39;8.85;;;3.75;;
29634;SDS011;16557;54.762;56.068;2022-11-03T03:31:16;10.38;;;3.98;;
29634;SDS011;16557;54.762;56.068;2022-11-03T03:33:47;10.15;;;5.15;;
29634;SDS011;16557;54.762;56.068;2022-11-03T03:36:18;8.65;;;5.60;;
29634;SDS011;16557;54.762;56.068;2022-11-03T03:38:51;17.00;;;5.95;;
29634;SDS011;16557;54.762;56.068;2022-11-03T03:41:20;15.40;;;5.62;;
29634;SDS011;16557;54.762;56.068;2022-11-03T03:43:50;9.08;;;4.83;;
29634;SDS011;16557;54.762;56.068;2022-11-03T03:46:25;7.87;;;4.50;;
29634;SDS011;16557;54.762;56.068;2022-11-03T03:48:56;5.33;;;3.42;;
29634;SDS011;16557;54.762;56.068;2022-11-03T03:51:25;8.55;;;2.80;;
29634;SDS011;16557;54.762;56.068;2022-11-03T03:53:56;3.77;;;2.85;;
29634;SDS011;16557;54.762;56.068;2022-11-03T03:56:32;4.83;;;1.82;;
29634;SDS011;16557;54.762;56.068;2022-11-03T03:59:06;3.60;;;1.98;;
29634;SDS011;16557;54.762;56.068;2022-11-03T04:01:35;2.40;;;1.70;;
29634;SDS011;16557;54.762;56.068;2022-11-03T04:04:05;4.03;;;1.40;;
29634;SDS011;16557;54.762;56.068;2022-11-03T04:06:34;7.17;;;1.55;;
29634;SDS011;16557;54.762;56.068;2022-11-03T04:09:03;9.18;;;2.15;;
29634;SDS011;16557;54.762;56.068;2022-11-03T04:11:32;7.10;;;2.20;;
29634;SDS011;16557;54.762;56.068;2022-11-03T04:14:19;13.08;;;2.40;;
29634;SDS011;16557;54.762;56.068;2022-11-03T04:17:14;22.22;;;3.80;;
29634;SDS011;16557;54.762;56.068;2022-11-03T04:19:59;8.75;;;2.95;;
29634;SDS011;16557;54.762;56.068;2022-11-03T04:22:45;10.03;;;2.08;;
29634;SDS011;16557;54.762;56.068;2022-11-03T04:25:15;3.72;;;1.60;;
29634;SDS011;16557;54.762;56.068;2022-11-03T04:27:44;13.93;;;2.80;;
29634;SDS011;16557;54.762;56.068;2022-11-03T04:30:14;9.00;;;1.77;;
29634;SDS011;16557;54.762;56.068;2022-11-03T04:32:45;23.95;;;3.58;;
29634;SDS011;16557;54.762;56.068;2022-11-03T04:35:16;11.50;;;3.08;;
29634;SDS011;16557;54.762;56.068;2022-11-03T04:37:53;11.90;;;2.58;;
29634;SDS011;16557;54.762;56.068;2022-11-03T04:40:31;16.45;;;3.02;;
29634;SDS011;16557;54.762;56.068;2022-11-03T04:43:00;6.62;;;2.08;;
29634;SDS011;16557;54.762;56.068;2022-11-03T04:45:31;6.33;;;2.72;;
29634;SDS011;16557;54.762;56.068;2022-11-03T04:48:01;2.80;;;1.90;;
29634;SDS011;16557;54.762;56.068;2022-11-03T04:50:36;5.53;;;2.17;;
29634;SDS011;16557;54.762;56.068;2022-11-03T04:53:09;4.03;;;1.98;;
29634;SDS011;16557;54.762;56.068;2022-11-03T04:55:40;4.17;;;1.87;;
29634;SDS011;16557;54.762;56.068;2022-11-03T05:00:51;8.40;;;2.67;;
29634;SDS011;16557;54.762;56.068;2022-11-03T05:03:24;6.10;;;2.10;;
29634;SDS011;16557;54.762;56.068;2022-11-03T05:05:57;3.90;;;2.47;;
29634;SDS011;16557;54.762;56.068;2022-11-03T05:08:29;14.58;;;2.92;;
29634;SDS011;16557;54.762;56.068;2022-11-03T05:11:00;9.75;;;2.27;;
29634;SDS011;16557;54.762;56.068;2022-11-03T05:13:29;2.85;;;1.65;;
29634;SDS011;16557;54.762;56.068;2022-11-03T05:16:03;4.72;;;2.10;;
29634;SDS011;16557;54.762;56.068;2022-11-03T05:18:33;2.72;;;1.80;;
29634;SDS011;16557;54.762;56.068;2022-11-03T05:21:05;3.75;;;2.02;;
29634;SDS011;16557;54.762;56.068;2022-11-03T05:23:39;5.65;;;2.05;;
29634;SDS011;16557;54.762;56.068;2022-11-03T05:26:25;5.28;;;1.70;;
29634;SDS011;16557;54.762;56.068;2022-11-03T05:28:59;5.53;;;1.87;;
29634;SDS011;16557;54.762;56.068;2022-11-03T05:31:40;5.42;;;2.10;;
29634;SDS011;16557;54.762;56.068;2022-11-03T05:34:20;7.08;;;2.60;;
29634;SDS011;16557;54.762;56.068;2022-11-03T05:36:48;11.57;;;2.40;;
29634;SDS011;16557;54.762;56.068;2022-11-03T05:41:56;10.80;;;2.85;;
29634;SDS011;16557;54.762;56.068;2022-11-03T05:44:36;5.22;;;2.17;;
29634;SDS011;16557;54.762;56.068;2022-11-03T05:47:20;9.43;;;2.42;;
29634;SDS011;16557;54.762;56.068;2022-11-03T05:52:21;5.55;;;3.05;;
29634;SDS011;16557;54.762;56.068;2022-11-03T05:54:52;13.10;;;3.15;;
29634;SDS011;16557;54.762;56.068;2022-11-03T05:57:23;9.20;;;2.92;;
29634;SDS011;16557;54.762;56.068;2022-11-03T05:59:54;8.43;;;2.42;;
29634;SDS011;16557;54.762;56.068;2022-11-03T06:04:58;24.52;;;3.65;;
29634;SDS011;16557;54.762;56.068;2022-11-03T06:07:29;5.35;;;2.15;;
29634;SDS011;16557;54.762;56.068;2022-11-03T06:09:59;10.98;;;1.90;;
29634;SDS011;16557;54.762;56.068;2022-11-03T06:12:29;8.58;;;1.70;;
29634;SDS011;16557;54.762;56.068;2022-11-03T06:14:58;6.72;;;1.52;;
29634;SDS011;16557;54.762;56.068;2022-11-03T06:17:29;8.08;;;2.15;;
29634;SDS011;16557;54.762;56.068;2022-11-03T06:19:58;19.42;;;3.60;;
29634;SDS011;16557;54.762;56.068;2022-11-03T06:22:30;2.92;;;0.95;;
29634;SDS011;16557;54.762;56.068;2022-11-03T06:27:50;2.37;;;0.60;;
29634;SDS011;16557;54.762;56.068;2022-11-03T06:30:20;3.55;;;0.95;;
29634;SDS011;16557;54.762;56.068;2022-11-03T06:32:54;7.78;;;1.10;;
29634;SDS011;16557;54.762;56.068;2022-11-03T06:35:37;5.10;;;0.78;;
29634;SDS011;16557;54.762;56.068;2022-11-03T06:38:18;5.42;;;0.70;;
29634;SDS011;16557;54.762;56.068;2022-11-03T06:40:51;4.47;;;1.00;;
29634;SDS011;16557;54.762;56.068;2022-11-03T06:43:21;2.35;;;0.68;;
29634;SDS011;16557;54.762;56.068;2022-11-03T06:45:54;19.48;;;3.37;;
29634;SDS011;16557;54.762;56.068;2022-11-03T06:48:26;13.68;;;1.40;;
29634;SDS011;16557;54.762;56.068;2022-11-03T06:50:56;10.70;;;1.25;;
29634;SDS011;16557;54.762;56.068;2022-11-03T06:53:27;3.33;;;0.65;;
29634;SDS011;16557;54.762;56.068;2022-11-03T06:55:59;2.00;;;0.50;;
29634;SDS011;16557;54.762;56.068;2022-11-03T06:58:33;8.60;;;0.80;;
29634;SDS011;16557;54.762;56.068;2022-11-03T07:01:13;8.83;;;1.10;;
29634;SDS011;16557;54.762;56.068;2022-11-03T07:03:40;9.80;;;1.20;;
29634;SDS011;16557;54.762;56.068;2022-11-03T07:08:42;1.05;;;0.70;;
29634;SDS011;16557;54.762;56.068;2022-11-03T07:13:52;11.18;;;1.20;;
29634;SDS011;16557;54.762;56.068;2022-11-03T07:16:37;6.78;;;0.82;;
29634;SDS011;16557;54.762;56.068;2022-11-03T07:19:04;1.02;;;0.40;;
29634;SDS011;16557;54.762;56.068;2022-11-03T07:21:39;7.78;;;1.07;;
29634;SDS011;16557;54.762;56.068;2022-11-03T07:24:25;5.37;;;0.90;;
29634;SDS011;16557;54.762;56.068;2022-11-03T07:29:29;13.88;;;1.35;;
29634;SDS011;16557;54.762;56.068;2022-11-03T07:31:59;7.97;;;1.50;;
29634;SDS011;16557;54.762;56.068;2022-11-03T07:34:30;6.22;;;0.82;;
29634;SDS011;16557;54.762;56.068;2022-11-03T07:36:59;6.60;;;0.85;;
29634;SDS011;16557;54.762;56.068;2022-11-03T07:39:32;15.00;;;1.40;;
29634;SDS011;16557;54.762;56.068;2022-11-03T07:42:10;2.42;;;1.15;;
29634;SDS011;16557;54.762;56.068;2022-11-03T07:44:37;4.50;;;0.93;;
29634;SDS011;16557;54.762;56.068;2022-11-03T07:47:11;12.00;;;1.37;;
29634;SDS011;16557;54.762;56.068;2022-11-03T07:49:41;4.28;;;0.70;;
29634;SDS011;16557;54.762;56.068;2022-11-03T07:52:11;14.35;;;1.37;;
29634;SDS011;16557;54.762;56.068;2022-11-03T07:54:42;13.00;;;0.80;;
29634;SDS011;16557;54.762;56.068;2022-11-03T07:59:44;10.95;;;1.10;;
29634;SDS011;16557;54.762;56.068;2022-11-03T08:02:36;18.45;;;1.67;;
29634;SDS011;16557;54.762;56.068;2022-11-03T08:05:07;6.95;;;0.78;;
29634;SDS011;16557;54.762;56.068;2022-11-03T08:07:36;6.10;;;0.70;;
29634;SDS011;16557;54.762;56.068;2022-11-03T08:10:06;9.20;;;1.40;;
29634;SDS011;16557;54.762;56.068;2022-11-03T08:12:36;2.58;;;0.50;;
29634;SDS011;16557;54.762;56.068;2022-11-03T08:15:06;22.50;;;1.27;;
29634;SDS011;16557;54.762;56.068;2022-11-03T08:17:35;3.70;;;0.45;;
29634;SDS011;16557;54.762;56.068;2022-11-03T08:20:07;4.50;;;0.40;;
29634;SDS011;16557;54.762;56.068;2022-11-03T08:22:37;7.17;;;0.40;;
29634;SDS011;16557;54.762;56.068;2022-11-03T08:25:06;3.95;;;0.50;;
29634;SDS011;16557;54.762;56.068;2022-11-03T08:27:35;8.28;;;0.70;;
29634;SDS011;16557;54.762;56.068;2022-11-03T08:30:06;3.30;;;0.57;;
29634;SDS011;16557;54.762;56.068;2022-11-03T08:32:36;15.15;;;1.15;;
29634;SDS011;16557;54.762;56.068;2022-11-03T08:35:05;5.60;;;0.60;;
29634;SDS011;16557;54.762;56.068;2022-11-03T08:37:35;7.03;;;0.98;;
29634;SDS011;16557;54.762;56.068;2022-11-03T08:40:04;2.90;;;0.42;;
29634;SDS011;16557;54.762;56.068;2022-11-03T08:42:34;22.45;;;2.40;;
29634;SDS011;16557;54.762;56.068;2022-11-03T08:45:04;19.25;;;1.62;;
29634;SDS011;16557;54.762;56.068;2022-11-03T08:47:33;0.45;;;0.20;;
29634;SDS011;16557;54.762;56.068;2022-11-03T08:50:03;5.45;;;0.42;;
29634;SDS011;16557;54.762;56.068;2022-11-03T08:52:33;5.28;;;0.57;;
29634;SDS011;16557;54.762;56.068;2022-11-03T08:55:02;1.92;;;0.65;;
29634;SDS011;16557;54.762;56.068;2022-11-03T08:57:32;4.53;;;0.42;;
29634;SDS011;16557;54.762;56.068;2022-11-03T09:00:02;3.92;;;0.62;;
29634;SDS011;16557;54.762;56.068;2022-11-03T09:02:32;5.75;;;0.72;;
29634;SDS011;16557;54.762;56.068;2022-11-03T09:05:01;11.55;;;0.90;;
29634;SDS011;16557;54.762;56.068;2022-11-03T09:07:31;6.85;;;0.80;;
29634;SDS011;16557;54.762;56.068;2022-11-03T09:10:00;19.05;;;1.35;;
29634;SDS011;16557;54.762;56.068;2022-11-03T09:12:29;4.58;;;0.70;;
29634;SDS011;16557;54.762;56.068;2022-11-03T09:14:58;5.08;;;0.57;;
29634;SDS011;16557;54.762;56.068;2022-11-03T09:17:29;3.72;;;0.50;;
29634;SDS011;16557;54.762;56.068;2022-11-03T09:19:58;2.30;;;0.40;;
29634;SDS011;16557;54.762;56.068;2022-11-03T09:22:28;4.72;;;0.47;;
29634;SDS011;16557;54.762;56.068;2022-11-03T09:24:57;3.33;;;0.53;;
29634;SDS011;16557;54.762;56.068;2022-11-03T09:27:28;3.72;;;0.57;;
29634;SDS011;16557;54.762;56.068;2022-11-03T09:29:58;5.97;;;0.40;;
29634;SDS011;16557;54.762;56.068;2022-11-03T09:32:29;2.27;;;0.50;;
29634;SDS011;16557;54.762;56.068;2022-11-03T09:34:58;8.68;;;1.07;;
29634;SDS011;16557;54.762;56.068;2022-11-03T09:37:28;4.92;;;0.78;;
29634;SDS011;16557;54.762;56.068;2022-11-03T09:39:58;10.08;;;1.30;;
29634;SDS011;16557;54.762;56.068;2022-11-03T09:42:30;6.60;;;0.60;;
29634;SDS011;16557;54.762;56.068;2022-11-03T09:45:00;30.10;;;2.58;;
29634;SDS011;16557;54.762;56.068;2022-11-03T09:47:31;9.45;;;1.07;;
29634;SDS011;16557;54.762;56.068;2022-11-03T09:50:03;5.92;;;1.02;;
29634;SDS011;16557;54.762;56.068;2022-11-03T09:52:33;4.92;;;0.80;;
29634;SDS011;16557;54.762;56.068;2022-11-03T09:55:08;29.55;;;2.90;;
29634;SDS011;16557;54.762;56.068;2022-11-03T09:57:44;25.02;;;3.00;;
29634;SDS011;16557;54.762;56.068;2022-11-03T10:00:15;6.83;;;1.10;;
29634;SDS011;16557;54.762;56.068;2022-11-03T10:02:49;29.80;;;3.27;;
29634;SDS011;16557;54.762;56.068;2022-11-03T10:05:22;11.95;;;2.70;;
29634;SDS011;16557;54.762;56.068;2022-11-03T10:07:55;15.18;;;2.30;;
29634;SDS011;16557;54.762;56.068;2022-11-03T10:10:25;17.65;;;3.37;;
29634;SDS011;16557;54.762;56.068;2022-11-03T10:12:54;48.45;;;6.25;;
29634;SDS011;16557;54.762;56.068;2022-11-03T10:15:24;30.52;;;5.15;;
29634;SDS011;16557;54.762;56.068;2022-11-03T10:17:54;13.03;;;2.25;;
29634;SDS011;16557;54.762;56.068;2022-11-03T10:20:23;15.72;;;2.20;;
29634;SDS011;16557;54.762;56.068;2022-11-03T10:22:52;18.95;;;2.58;;
29634;SDS011;16557;54.762;56.068;2022-11-03T10:25:29;15.40;;;2.75;;
29634;SDS011;16557;54.762;56.068;2022-11-03T10:28:16;13.48;;;1.30;;
29634;SDS011;16557;54.762;56.068;2022-11-03T10:33:31;3.72;;;1.15;;
29634;SDS011;16557;54.762;56.068;2022-11-03T10:36:03;2.10;;;0.88;;
29634;SDS011;16557;54.762;56.068;2022-11-03T10:38:34;9.38;;;1.27;;
29634;SDS011;16557;54.762;56.068;2022-11-03T10:41:20;13.50;;;1.82;;
29634;SDS011;16557;54.762;56.068;2022-11-03T10:46:32;21.25;;;2.40;;
29634;SDS011;16557;54.762;56.068;2022-11-03T10:49:10;10.35;;;1.65;;
29634;SDS011;16557;54.762;56.068;2022-11-03T10:51:50;3.65;;;1.17;;
29634;SDS011;16557;54.762;56.068;2022-11-03T10:54:16;2.33;;;0.90;;
29634;SDS011;16557;54.762;56.068;2022-11-03T10:56:47;19.50;;;1.77;;
29634;SDS011;16557;54.762;56.068;2022-11-03T10:59:18;6.10;;;1.27;;
29634;SDS011;16557;54.762;56.068;2022-11-03T11:01:49;23.50;;;3.47;;
29634;SDS011;16557;54.762;56.068;2022-11-03T11:04:18;16.27;;;1.70;;
29634;SDS011;16557;54.762;56.068;2022-11-03T11:06:48;15.25;;;2.08;;
29634;SDS011;16557;54.762;56.068;2022-11-03T11:09:22;6.22;;;1.47;;
29634;SDS011;16557;54.762;56.068;2022-11-03T11:14:34;9.95;;;1.32;;
29634;SDS011;16557;54.762;56.068;2022-11-03T11:17:13;7.75;;;1.85;;
29634;SDS011;16557;54.762;56.068;2022-11-03T11:22:49;11.28;;;1.20;;
29634;SDS011;16557;54.762;56.068;2022-11-03T11:25:18;3.85;;;0.93;;
29634;SDS011;16557;54.762;56.068;2022-11-03T11:32:59;20.05;;;2.08;;
29634;SDS011;16557;54.762;56.068;2022-11-03T11:41:10;14.63;;;1.87;;
29634;SDS011;16557;54.762;56.068;2022-11-03T11:43:39;8.90;;;0.80;;
29634;SDS011;16557;54.762;56.068;2022-11-03T11:51:39;4.85;;;0.65;;
29634;SDS011;16557;54.762;56.068;2022-11-03T11:54:16;22.27;;;2.62;;
29634;SDS011;16557;54.762;56.068;2022-11-03T11:56:46;14.90;;;0.98;;
29634;SDS011;16557;54.762;56.068;2022-11-03T11:59:22;8.40;;;1.07;;
29634;SDS011;16557;54.762;56.068;2022-11-03T12:01:52;22.32;;;1.25;;
29634;SDS011;16557;54.762;56.068;2022-11-03T12:04:24;31.62;;;2.80;;
29634;SDS011;16557;54.762;56.068;2022-11-03T12:06:55;11.97;;;1.80;;
29634;SDS011;16557;54.762;56.068;2022-11-03T12:09:25;15.55;;;2.47;;
29634;SDS011;16557;54.762;56.068;2022-11-03T12:11:55;45.45;;;3.50;;
29634;SDS011;16557;54.762;56.068;2022-11-03T12:14:38;23.18;;;2.33;;
29634;SDS011;16557;54.762;56.068;2022-11-03T12:19:53;8.58;;;1.05;;
29634;SDS011;16557;54.762;56.068;2022-11-03T12:24:56;23.12;;;2.55;;
29634;SDS011;16557;54.762;56.068;2022-11-03T12:30:03;11.20;;;1.92;;
29634;SDS011;16557;54.762;56.068;2022-11-03T12:32:35;42.23;;;5.20;;
29634;SDS011;16557;54.762;56.068;2022-11-03T12:35:05;15.28;;;2.12;;
29634;SDS011;16557;54.762;56.068;2022-11-03T12:37:35;26.65;;;2.62;;
29634;SDS011;16557;54.762;56.068;2022-11-03T12:40:05;26.80;;;2.37;;
29634;SDS011;16557;54.762;56.068;2022-11-03T12:42:35;9.13;;;1.30;;
29634;SDS011;16557;54.762;56.068;2022-11-03T12:45:04;29.72;;;3.12;;
29634;SDS011;16557;54.762;56.068;2022-11-03T12:47:34;12.75;;;1.62;;
29634;SDS011;16557;54.762;56.068;2022-11-03T12:50:04;22.37;;;2.22;;
29634;SDS011;16557;54.762;56.068;2022-11-03T12:52:33;48.30;;;4.17;;
29634;SDS011;16557;54.762;56.068;2022-11-03T12:55:03;31.40;;;3.77;;
29634;SDS011;16557;54.762;56.068;2022-11-03T12:57:32;29.35;;;2.12;;
29634;SDS011;16557;54.762;56.068;2022-11-03T13:00:02;26.82;;;2.50;;
29634;SDS011;16557;54.762;56.068;2022-11-03T13:02:32;49.50;;;4.05;;
29634;SDS011;16557;54.762;56.068;2022-11-03T13:05:02;44.53;;;4.03;;
29634;SDS011;16557;54.762;56.068;2022-11-03T13:07:31;23.98;;;3.33;;
29634;SDS011;16557;54.762;56.068;2022-11-03T13:10:01;31.52;;;3.47;;
29634;SDS011;16557;54.762;56.068;2022-11-03T13:12:31;38.90;;;3.55;;
29634;SDS011;16557;54.762;56.068;2022-11-03T13:15:02;41.48;;;4.12;;
29634;SDS011;16557;54.762;56.068;2022-11-03T13:17:33;44.48;;;4.17;;
29634;SDS011;16557;54.762;56.068;2022-11-03T13:20:04;18.57;;;2.17;;
29634;SDS011;16557;54.762;56.068;2022-11-03T13:22:34;17.27;;;2.15;;
29634;SDS011;16557;54.762;56.068;2022-11-03T13:25:05;64.72;;;6.75;;
29634;SDS011;16557;54.762;56.068;2022-11-03T13:27:35;11.50;;;1.27;;
29634;SDS011;16557;54.762;56.068;2022-11-03T13:30:04;19.37;;;2.60;;
29634;SDS011;16557;54.762;56.068;2022-11-03T13:32:34;23.18;;;3.55;;
29634;SDS011;16557;54.762;56.068;2022-11-03T13:35:04;17.67;;;1.77;;
29634;SDS011;16557;54.762;56.068;2022-11-03T13:37:33;36.30;;;3.22;;
29634;SDS011;16557;54.762;56.068;2022-11-03T13:40:03;42.45;;;4.78;;
29634;SDS011;16557;54.762;56.068;2022-11-03T13:42:32;71.12;;;6.08;;
29634;SDS011;16557;54.762;56.068;2022-11-03T13:45:02;37.78;;;3.77;;
29634;SDS011;16557;54.762;56.068;2022-11-03T13:47:31;41.48;;;2.70;;
29634;SDS011;16557;54.762;56.068;2022-11-03T13:50:01;32.13;;;3.00;;
29634;SDS011;16557;54.762;56.068;2022-11-03T13:52:30;37.28;;;4.17;;
29634;SDS011;16557;54.762;56.068;2022-11-03T13:54:59;47.08;;;4.15;;
29634;SDS011;16557;54.762;56.068;2022-11-03T13:57:29;19.25;;;2.25;;
29634;SDS011;16557;54.762;56.068;2022-11-03T13:59:58;19.80;;;2.85;;
29634;SDS011;16557;54.762;56.068;2022-11-03T14:02:29;11.03;;;1.62;;
29634;SDS011;16557;54.762;56.068;2022-11-03T14:04:58;10.95;;;2.55;;
29634;SDS011;16557;54.762;56.068;2022-11-03T14:07:29;20.08;;;2.67;;
29634;SDS011;16557;54.762;56.068;2022-11-03T14:09:59;31.15;;;3.98;;
29634;SDS011;16557;54.762;56.068;2022-11-03T14:12:29;16.65;;;3.08;;
29634;SDS011;16557;54.762;56.068;2022-11-03T14:15:10;37.95;;;4.40;;
29634;SDS011;16557;54.762;56.068;2022-11-03T14:17:37;10.90;;;2.10;;
29634;SDS011;16557;54.762;56.068;2022-11-03T14:20:07;8.25;;;2.62;;
29634;SDS011;16557;54.762;56.068;2022-11-03T14:22:38;10.78;;;2.40;;
29634;SDS011;16557;54.762;56.068;2022-11-03T14:25:07;17.98;;;2.92;;
29634;SDS011;16557;54.762;56.068;2022-11-03T14:27:38;17.65;;;3.52;;
29634;SDS011;16557;54.762;56.068;2022-11-03T14:30:08;14.03;;;2.55;;
29634;SDS011;16557;54.762;56.068;2022-11-03T14:32:38;21.85;;;3.87;;
29634;SDS011;16557;54.762;56.068;2022-11-03T14:35:08;12.63;;;2.90;;
29634;SDS011;16557;54.762;56.068;2022-11-03T14:37:37;24.05;;;3.17;;
29634;SDS011;16557;54.762;56.068;2022-11-03T14:40:06;8.03;;;2.12;;
29634;SDS011;16557;54.762;56.068;2022-11-03T14:42:38;8.08;;;2.00;;
29634;SDS011;16557;54.762;56.068;2022-11-03T14:45:07;25.27;;;9.40;;
29634;SDS011;16557;54.762;56.068;2022-11-03T14:47:37;20.32;;;5.72;;
29634;SDS011;16557;54.762;56.068;2022-11-03T14:50:06;26.73;;;10.38;;
29634;SDS011;16557;54.762;56.068;2022-11-03T14:52:35;27.37;;;9.60;;
29634;SDS011;16557;54.762;56.068;2022-11-03T14:55:05;53.70;;;23.20;;
29634;SDS011;16557;54.762;56.068;2022-11-03T14:57:34;18.17;;;7.25;;
29634;SDS011;16557;54.762;56.068;2022-11-03T15:00:04;17.15;;;5.40;;
29634;SDS011;16557;54.762;56.068;2022-11-03T15:02:34;25.35;;;4.85;;
29634;SDS011;16557;54.762;56.068;2022-11-03T15:05:04;27.45;;;4.58;;
29634;SDS011;16557;54.762;56.068;2022-11-03T15:07:35;22.48;;;3.92;;
29634;SDS011;16557;54.762;56.068;2022-11-03T15:10:05;35.88;;;5.85;;
29634;SDS011;16557;54.762;56.068;2022-11-03T15:12:34;8.60;;;3.27;;
29634;SDS011;16557;54.762;56.068;2022-11-03T15:15:04;28.70;;;4.92;;
29634;SDS011;16557;54.762;56.068;2022-11-03T15:17:34;14.47;;;3.00;;
29634;SDS011;16557;54.762;56.068;2022-11-03T15:20:03;18.55;;;3.45;;
29634;SDS011;16557;54.762;56.068;2022-11-03T15:22:33;17.77;;;4.85;;
29634;SDS011;16557;54.762;56.068;2022-11-03T15:25:03;20.68;;;3.35;;
29634;SDS011;16557;54.762;56.068;2022-11-03T15:27:34;17.92;;;2.75;;
29634;SDS011;16557;54.762;56.068;2022-11-03T15:30:04;16.75;;;3.08;;
29634;SDS011;16557;54.762;56.068;2022-11-03T15:32:34;22.50;;;3.20;;
29634;SDS011;16557;54.762;56.068;2022-11-03T15:35:03;30.00;;;3.72;;
29634;SDS011;16557;54.762;56.068;2022-11-03T15:37:33;34.88;;;4.35;;
29634;SDS011;16557;54.762;56.068;2022-11-03T15:40:02;26.12;;;4.37;;
29634;SDS011;16557;54.762;56.068;2022-11-03T15:42:32;14.87;;;2.60;;
29634;SDS011;16557;54.762;56.068;2022-11-03T15:45:01;19.60;;;2.00;;
29634;SDS011;16557;54.762;56.068;2022-11-03T15:47:31;9.43;;;2.77;;
29634;SDS011;16557;54.762;56.068;2022-11-03T15:50:00;13.43;;;6.00;;
29634;SDS011;16557;54.762;56.068;2022-11-03T15:52:29;28.55;;;5.33;;
29634;SDS011;16557;54.762;56.068;2022-11-03T15:54:58;26.42;;;3.12;;